createdAt,value
2023-04-26T00:00:29.881Z,0.00
2023-04-26T00:01:29.787Z,0.00
2023-04-26T00:02:29.887Z,0.00
2023-04-26T00:03:29.864Z,0.00
2023-04-26T00:04:29.959Z,0.00
2023-04-26T00:05:29.907Z,0.00
2023-04-26T00:06:29.797Z,0.00
2023-04-26T00:07:29.718Z,0.00
2023-04-26T00:08:29.711Z,0.00
2023-04-26T00:09:29.702Z,0.00
2023-04-26T00:10:29.665Z,0.00
2023-04-26T00:11:29.679Z,0.00
2023-04-26T00:12:29.742Z,0.00
2023-04-26T00:13:29.665Z,0.00
2023-04-26T00:14:29.654Z,0.00
2023-04-26T00:15:29.632Z,0.00
2023-04-26T00:16:29.718Z,0.00
2023-04-26T00:17:29.605Z,0.00
2023-04-26T00:18:29.599Z,0.00
2023-04-26T00:19:29.576Z,0.00
2023-04-26T00:20:29.584Z,0.00
2023-04-26T00:21:29.573Z,0.00
2023-04-26T00:22:29.556Z,0.00
2023-04-26T00:23:29.518Z,0.00
2023-04-26T00:24:29.565Z,0.00
2023-04-26T00:25:29.509Z,0.00
2023-04-26T00:26:29.514Z,0.00
2023-04-26T00:27:29.485Z,0.00
2023-04-26T00:28:29.475Z,0.00
2023-04-26T00:29:29.485Z,0.00
2023-04-26T00:30:29.462Z,0.00
2023-04-26T00:31:29.505Z,0.00
2023-04-26T00:32:29.466Z,0.00
2023-04-26T00:33:29.415Z,0.00
2023-04-26T00:34:29.432Z,0.00
2023-04-26T00:35:29.410Z,0.00
2023-04-26T00:36:29.396Z,0.00
2023-04-26T00:37:29.388Z,0.00
2023-04-26T00:38:29.378Z,0.00
2023-04-26T00:39:29.350Z,0.00
2023-04-26T00:40:29.348Z,0.00
2023-04-26T00:41:29.330Z,0.00
2023-04-26T00:42:29.325Z,0.00
2023-04-26T00:43:29.327Z,0.00
2023-04-26T00:44:29.336Z,0.00
2023-04-26T00:45:29.307Z,0.00
2023-04-26T00:46:29.345Z,0.00
2023-04-26T00:47:29.313Z,0.00
2023-04-26T00:48:29.267Z,0.00
2023-04-26T00:49:29.260Z,0.00
2023-04-26T00:50:29.296Z,0.00
2023-04-26T00:51:29.259Z,0.00
2023-04-26T00:52:29.225Z,0.00
2023-04-26T00:53:29.195Z,0.00
2023-04-26T00:54:29.206Z,0.00
2023-04-26T00:55:29.200Z,0.00
2023-04-26T00:56:29.160Z,0.00
2023-04-26T00:57:29.158Z,0.00
2023-04-26T00:58:29.148Z,0.00
2023-04-26T00:59:29.135Z,0.00
2023-04-26T01:00:29.120Z,0.00
2023-04-26T01:01:29.170Z,0.00
2023-04-26T01:02:29.196Z,0.00
2023-04-26T01:03:29.188Z,0.00
2023-04-26T01:04:29.132Z,0.00
2023-04-26T01:05:29.077Z,0.00
2023-04-26T01:06:29.046Z,0.00
2023-04-26T01:07:29.048Z,0.00
2023-04-26T01:08:29.041Z,0.00
2023-04-26T01:09:29.039Z,0.00
2023-04-26T01:10:29.041Z,0.00
2023-04-26T01:11:29.016Z,0.00
2023-04-26T01:12:28.999Z,0.00
2023-04-26T01:13:28.974Z,0.00
2023-04-26T01:14:28.965Z,0.00
2023-04-26T01:15:28.960Z,0.00
2023-04-26T01:16:28.991Z,0.00
2023-04-26T01:17:28.975Z,0.00
2023-04-26T01:18:28.938Z,0.00
2023-04-26T01:19:28.910Z,0.00
2023-04-26T01:20:28.916Z,0.00
2023-04-26T01:21:28.902Z,0.00
2023-04-26T01:22:28.892Z,0.00
2023-04-26T01:23:28.881Z,0.00
2023-04-26T01:24:28.854Z,0.00
2023-04-26T01:25:28.850Z,0.00
2023-04-26T01:26:28.836Z,0.00
2023-04-26T01:27:28.835Z,0.00
2023-04-26T01:28:28.797Z,0.00
2023-04-26T01:29:28.796Z,0.00
2023-04-26T01:30:28.815Z,0.00
2023-04-26T01:31:28.916Z,0.00
2023-04-26T01:32:28.768Z,0.00
2023-04-26T01:33:28.758Z,0.00
2023-04-26T01:34:28.761Z,0.00
2023-04-26T01:35:28.730Z,0.00
2023-04-26T01:36:28.735Z,0.00
2023-04-26T01:37:28.711Z,0.00
2023-04-26T01:38:28.721Z,0.00
2023-04-26T01:39:28.702Z,0.00
2023-04-26T01:40:28.676Z,0.00
2023-04-26T01:41:28.666Z,0.00
2023-04-26T01:42:28.665Z,0.00
2023-04-26T01:43:28.639Z,0.00
2023-04-26T01:44:28.630Z,0.00
2023-04-26T01:45:28.618Z,0.00
2023-04-26T01:46:28.644Z,0.00
2023-04-26T01:47:28.663Z,0.00
2023-04-26T01:48:28.584Z,0.00
2023-04-26T01:49:28.590Z,0.00
2023-04-26T01:50:28.570Z,0.00
2023-04-26T01:51:28.554Z,0.00
2023-04-26T01:52:28.548Z,0.00
2023-04-26T01:53:28.577Z,0.00
2023-04-26T01:54:28.521Z,0.00
2023-04-26T01:55:28.532Z,0.00
2023-04-26T01:56:28.506Z,0.00
2023-04-26T01:57:28.485Z,0.00
2023-04-26T01:58:28.490Z,0.00
2023-04-26T01:59:28.452Z,0.00
2023-04-26T02:00:28.453Z,0.00
2023-04-26T02:01:28.500Z,0.00
2023-04-26T02:02:28.471Z,0.00
2023-04-26T02:03:28.443Z,0.00
2023-04-26T02:04:28.437Z,0.00
2023-04-26T02:05:28.478Z,0.00
2023-04-26T02:06:28.411Z,0.00
2023-04-26T02:07:28.372Z,0.00
2023-04-26T02:08:28.379Z,0.00
2023-04-26T02:09:28.394Z,0.00
2023-04-26T02:10:28.356Z,0.00
2023-04-26T02:11:28.330Z,0.00
2023-04-26T02:12:28.344Z,0.00
2023-04-26T02:13:28.371Z,0.00
2023-04-26T02:14:28.308Z,0.00
2023-04-26T02:15:28.300Z,0.00
2023-04-26T02:16:28.345Z,0.00
2023-04-26T02:17:28.325Z,0.00
2023-04-26T02:18:28.287Z,0.00
2023-04-26T02:19:28.236Z,0.00
2023-04-26T02:20:28.230Z,0.00
2023-04-26T02:21:28.241Z,0.00
2023-04-26T02:22:28.239Z,0.00
2023-04-26T02:23:28.201Z,0.00
2023-04-26T02:24:28.182Z,0.00
2023-04-26T02:25:28.165Z,0.00
2023-04-26T02:26:28.193Z,0.00
2023-04-26T02:27:28.165Z,0.00
2023-04-26T02:28:28.166Z,0.00
2023-04-26T02:29:42.285Z,0.00
2023-04-26T02:30:28.241Z,0.00
2023-04-26T02:31:28.195Z,0.00
2023-04-26T02:32:28.139Z,0.00
2023-04-26T02:33:28.104Z,0.00
2023-04-26T02:34:28.099Z,0.00
2023-04-26T02:35:28.074Z,0.00
2023-04-26T02:36:28.083Z,0.00
2023-04-26T02:37:28.046Z,0.00
2023-04-26T02:38:28.024Z,0.00
2023-04-26T02:39:28.033Z,0.00
2023-04-26T02:40:28.015Z,0.00
2023-04-26T02:41:28.017Z,0.00
2023-04-26T02:42:28.004Z,0.00
2023-04-26T02:43:27.993Z,0.00
2023-04-26T02:44:27.993Z,0.00
2023-04-26T02:45:27.957Z,0.00
2023-04-26T02:46:27.973Z,0.00
2023-04-26T02:47:27.961Z,0.00
2023-04-26T02:48:27.959Z,0.00
2023-04-26T02:49:27.910Z,0.00
2023-04-26T02:50:27.899Z,0.00
2023-04-26T02:51:27.943Z,0.00
2023-04-26T02:52:27.915Z,0.00
2023-04-26T02:53:27.874Z,0.00
2023-04-26T02:54:27.870Z,0.00
2023-04-26T02:55:27.852Z,0.00
2023-04-26T02:56:27.885Z,0.00
2023-04-26T02:57:27.833Z,0.00
2023-04-26T02:58:27.823Z,0.00
2023-04-26T02:59:27.797Z,0.00
2023-04-26T03:00:27.847Z,0.00
2023-04-26T03:01:27.818Z,0.00
2023-04-26T03:02:27.903Z,0.00
2023-04-26T03:03:28.019Z,0.00
2023-04-26T03:04:27.744Z,0.00
2023-04-26T03:05:27.748Z,0.00
2023-04-26T03:06:27.809Z,0.00
2023-04-26T03:07:27.724Z,0.00
2023-04-26T03:08:27.729Z,0.00
2023-04-26T03:09:27.685Z,0.00
2023-04-26T03:10:27.698Z,0.00
2023-04-26T03:11:27.682Z,0.00
2023-04-26T03:12:27.671Z,0.00
2023-04-26T03:13:27.655Z,0.00
2023-04-26T03:14:27.632Z,0.00
2023-04-26T03:15:27.624Z,0.00
2023-04-26T03:16:27.712Z,0.00
2023-04-26T03:17:27.618Z,0.00
2023-04-26T03:18:27.584Z,0.00
2023-04-26T03:19:27.565Z,0.00
2023-04-26T03:20:27.590Z,0.00
2023-04-26T03:21:27.580Z,0.00
2023-04-26T03:22:27.550Z,0.00
2023-04-26T03:23:27.544Z,0.00
2023-04-26T03:24:27.522Z,0.00
2023-04-26T03:25:27.510Z,0.00
2023-04-26T03:26:27.509Z,0.00
2023-04-26T03:27:27.490Z,0.00
2023-04-26T03:28:27.487Z,0.00
2023-04-26T03:29:27.482Z,0.00
2023-04-26T03:30:27.476Z,0.00
2023-04-26T03:31:27.541Z,0.00
2023-04-26T03:32:27.493Z,0.00
2023-04-26T03:33:27.450Z,0.00
2023-04-26T03:34:27.498Z,0.00
2023-04-26T03:35:27.417Z,0.00
2023-04-26T03:36:27.411Z,0.00
2023-04-26T03:37:27.412Z,0.00
2023-04-26T03:38:27.398Z,0.00
2023-04-26T03:39:27.353Z,0.00
2023-04-26T03:40:27.367Z,0.00
2023-04-26T03:41:27.343Z,0.00
2023-04-26T03:42:27.360Z,0.00
2023-04-26T03:43:27.313Z,0.00
2023-04-26T03:44:28.339Z,0.00
2023-04-26T03:45:27.301Z,0.00
2023-04-26T03:46:27.326Z,0.00
2023-04-26T03:47:27.307Z,0.00
2023-04-26T03:48:27.281Z,0.00
2023-04-26T03:49:27.246Z,0.00
2023-04-26T03:50:27.242Z,0.00
2023-04-26T03:51:27.234Z,0.00
2023-04-26T03:52:27.240Z,4.00
2023-04-26T03:53:27.203Z,4.00
2023-04-26T03:54:27.213Z,4.00
2023-04-26T03:55:27.187Z,0.00
2023-04-26T03:56:27.175Z,4.00
2023-04-26T03:57:27.172Z,4.00
2023-04-26T03:58:27.174Z,4.00
2023-04-26T03:59:27.143Z,4.00
2023-04-26T04:00:27.123Z,8.00
2023-04-26T04:01:27.129Z,12.00
2023-04-26T04:02:27.210Z,12.00
2023-04-26T04:03:27.235Z,16.00
2023-04-26T04:04:27.234Z,16.00
2023-04-26T04:05:27.124Z,20.00
2023-04-26T04:06:27.101Z,24.00
2023-04-26T04:07:27.056Z,28.00
2023-04-26T04:08:27.057Z,32.00
2023-04-26T04:09:27.025Z,36.00
2023-04-26T04:10:27.028Z,44.00
2023-04-26T04:11:27.029Z,44.00
2023-04-26T04:12:27.012Z,52.00
2023-04-26T04:13:26.999Z,60.00
2023-04-26T04:14:26.974Z,68.00
2023-04-26T04:15:26.970Z,72.00
2023-04-26T04:16:26.976Z,76.00
2023-04-26T04:17:26.977Z,76.00
2023-04-26T04:18:26.954Z,76.00
2023-04-26T04:19:26.914Z,80.00
2023-04-26T04:20:26.904Z,84.00
2023-04-26T04:21:26.879Z,96.00
2023-04-26T04:22:26.895Z,108.00
2023-04-26T04:23:26.868Z,124.00
2023-04-26T04:24:26.847Z,136.00
2023-04-26T04:25:26.887Z,144.00
2023-04-26T04:26:26.911Z,148.00
2023-04-26T04:27:26.853Z,144.00
2023-04-26T04:28:26.861Z,148.00
2023-04-26T04:29:26.844Z,156.00
2023-04-26T04:30:26.796Z,164.00
2023-04-26T04:31:26.785Z,180.00
2023-04-26T04:32:26.851Z,200.00
2023-04-26T04:33:26.762Z,216.00
2023-04-26T04:34:26.748Z,232.00
2023-04-26T04:35:26.767Z,248.00
2023-04-26T04:36:26.732Z,260.00
2023-04-26T04:37:26.711Z,276.00
2023-04-26T04:38:26.707Z,292.00
2023-04-26T04:39:26.722Z,312.00
2023-04-26T04:40:26.686Z,340.00
2023-04-26T04:41:26.710Z,364.00
2023-04-26T04:42:26.653Z,384.00
2023-04-26T04:43:26.668Z,392.00
2023-04-26T04:44:26.628Z,408.00
2023-04-26T04:45:26.630Z,432.00
2023-04-26T04:46:26.641Z,460.00
2023-04-26T04:47:26.631Z,492.00
2023-04-26T04:48:26.613Z,516.00
2023-04-26T04:49:26.593Z,532.00
2023-04-26T04:50:26.593Z,552.00
2023-04-26T04:51:26.592Z,564.00
2023-04-26T04:52:26.577Z,592.00
2023-04-26T04:53:26.569Z,628.00
2023-04-26T04:54:26.536Z,664.00
2023-04-26T04:55:26.541Z,704.00
2023-04-26T04:56:26.518Z,744.00
2023-04-26T04:57:26.510Z,792.00
2023-04-26T04:58:26.485Z,836.00
2023-04-26T04:59:27.467Z,896.00
2023-04-26T05:00:26.470Z,968.00
2023-04-26T05:01:26.489Z,1060.00
2023-04-26T05:02:26.729Z,1100.00
2023-04-26T05:03:26.542Z,1144.00
2023-04-26T05:04:26.618Z,1180.00
2023-04-26T05:05:26.422Z,1244.00
2023-04-26T05:06:26.399Z,1320.00
2023-04-26T05:07:28.549Z,1388.00
2023-04-26T05:08:26.367Z,1444.00
2023-04-26T05:09:26.363Z,1524.00
2023-04-26T05:10:26.363Z,1560.00
2023-04-26T05:11:26.337Z,1592.00
2023-04-26T05:12:26.344Z,1616.00
2023-04-26T05:13:26.320Z,1600.00
2023-04-26T05:14:26.322Z,1580.00
2023-04-26T05:15:26.309Z,1564.00
2023-04-26T05:16:26.334Z,1568.00
2023-04-26T05:17:26.309Z,1560.00
2023-04-26T05:18:26.283Z,1536.00
2023-04-26T05:19:26.277Z,1496.00
2023-04-26T05:20:26.245Z,1464.00
2023-04-26T05:21:26.244Z,1424.00
2023-04-26T05:22:26.221Z,1428.00
2023-04-26T05:23:26.219Z,1472.00
2023-04-26T05:24:26.214Z,1544.00
2023-04-26T05:25:26.181Z,1652.00
2023-04-26T05:26:26.189Z,1820.00
2023-04-26T05:27:26.194Z,1896.00
2023-04-26T05:28:26.167Z,1932.00
2023-04-26T05:29:26.167Z,1964.00
2023-04-26T05:30:26.143Z,2004.00
2023-04-26T05:31:26.168Z,2008.00
2023-04-26T05:32:26.117Z,1968.00
2023-04-26T05:33:26.126Z,1948.00
2023-04-26T05:34:26.093Z,1956.00
2023-04-26T05:35:26.122Z,2008.00
2023-04-26T05:36:27.936Z,2088.00
2023-04-26T05:37:26.073Z,2156.00
2023-04-26T05:38:26.053Z,2224.00
2023-04-26T05:39:26.061Z,2284.00
2023-04-26T05:40:26.036Z,2364.00
2023-04-26T05:41:26.027Z,2380.00
2023-04-26T05:42:26.064Z,2420.00
2023-04-26T05:43:25.994Z,2468.00
2023-04-26T05:44:25.998Z,2548.00
2023-04-26T05:45:26.011Z,2648.00
2023-04-26T05:46:26.038Z,2788.00
2023-04-26T05:47:25.953Z,2904.00
2023-04-26T05:48:25.934Z,3004.00
2023-04-26T05:49:25.924Z,3152.00
2023-04-26T05:50:25.927Z,3376.00
2023-04-26T05:51:25.923Z,3616.00
2023-04-26T05:52:25.901Z,3684.00
2023-04-26T05:53:25.904Z,3796.00
2023-04-26T05:54:25.914Z,3928.00
2023-04-26T05:55:25.880Z,4048.00
2023-04-26T05:56:25.880Z,4136.00
2023-04-26T05:57:25.903Z,4024.00
2023-04-26T05:58:25.836Z,3912.00
2023-04-26T05:59:25.839Z,3856.00
2023-04-26T06:00:25.819Z,3936.00
2023-04-26T06:01:25.801Z,3920.00
2023-04-26T06:02:25.889Z,3840.00
2023-04-26T06:03:25.927Z,3816.00
2023-04-26T06:04:26.029Z,3772.00
2023-04-26T06:05:25.924Z,3884.00
2023-04-26T06:06:25.731Z,3920.00
2023-04-26T06:07:25.714Z,3884.00
2023-04-26T06:08:25.703Z,3752.00
2023-04-26T06:09:25.713Z,3652.00
2023-04-26T06:10:25.684Z,3524.00
2023-04-26T06:11:25.700Z,3284.00
2023-04-26T06:12:25.680Z,3104.00
2023-04-26T06:13:25.685Z,3188.00
2023-04-26T06:14:30.415Z,3424.00
2023-04-26T06:15:25.652Z,3656.00
2023-04-26T06:16:25.717Z,3904.00
2023-04-26T06:17:25.626Z,4120.00
2023-04-26T06:18:25.594Z,4456.00
2023-04-26T06:19:25.639Z,4776.00
2023-04-26T06:20:25.593Z,4820.00
2023-04-26T06:21:25.573Z,4780.00
2023-04-26T06:22:25.550Z,4708.00
2023-04-26T06:23:25.554Z,4692.00
2023-04-26T06:24:25.539Z,4856.00
2023-04-26T06:25:25.544Z,5076.00
2023-04-26T06:26:25.519Z,4868.00
2023-04-26T06:27:25.496Z,4668.00
2023-04-26T06:28:25.488Z,4744.00
2023-04-26T06:29:25.508Z,4796.00
2023-04-26T06:30:25.473Z,4896.00
2023-04-26T06:31:25.522Z,5084.00
2023-04-26T06:32:25.467Z,5240.00
2023-04-26T06:33:25.445Z,5232.00
2023-04-26T06:34:25.437Z,5256.00
2023-04-26T06:35:25.425Z,5192.00
2023-04-26T06:36:25.416Z,4908.00
2023-04-26T06:37:25.389Z,4652.00
2023-04-26T06:38:25.382Z,4312.00
2023-04-26T06:39:25.405Z,3944.00
2023-04-26T06:40:25.356Z,3672.00
2023-04-26T06:41:25.358Z,3428.00
2023-04-26T06:42:25.362Z,3332.00
2023-04-26T06:43:25.323Z,3300.00
2023-04-26T06:44:25.337Z,3260.00
2023-04-26T06:45:25.312Z,3340.00
2023-04-26T06:46:25.388Z,3480.00
2023-04-26T06:47:25.316Z,3628.00
2023-04-26T06:48:25.277Z,3864.00
2023-04-26T06:49:25.419Z,4224.00
2023-04-26T06:50:25.260Z,4712.00
2023-04-26T06:51:25.259Z,4804.00
2023-04-26T06:52:25.220Z,4620.00
2023-04-26T06:53:25.233Z,4676.00
2023-04-26T06:54:25.191Z,4960.00
2023-04-26T06:55:25.208Z,5244.00
2023-04-26T06:56:25.171Z,5500.00
2023-04-26T06:57:25.181Z,5456.00
2023-04-26T06:58:25.170Z,4996.00
2023-04-26T06:59:25.184Z,4824.00
2023-04-26T07:00:25.135Z,4952.00
2023-04-26T07:01:25.204Z,4820.00
2023-04-26T07:02:25.329Z,4708.00
2023-04-26T07:03:25.211Z,4268.00
2023-04-26T07:04:25.293Z,4208.00
2023-04-26T07:05:25.080Z,5000.00
2023-04-26T07:06:25.082Z,6204.00
2023-04-26T07:07:25.053Z,7080.00
2023-04-26T07:08:25.062Z,7396.00
2023-04-26T07:09:25.032Z,6828.00
2023-04-26T07:10:25.041Z,7196.00
2023-04-26T07:11:26.025Z,8216.00
2023-04-26T07:12:25.000Z,8776.00
2023-04-26T07:13:25.074Z,8644.00
2023-04-26T07:14:25.026Z,8812.00
2023-04-26T07:15:24.982Z,9776.00
2023-04-26T07:16:25.010Z,10136.00
2023-04-26T07:17:24.984Z,10516.00
2023-04-26T07:18:24.932Z,9928.00
2023-04-26T07:19:24.944Z,10024.00
2023-04-26T07:20:24.913Z,10392.00
2023-04-26T07:21:24.927Z,10568.00
2023-04-26T07:22:24.937Z,9872.00
2023-04-26T07:23:24.871Z,9360.00
2023-04-26T07:24:24.883Z,9204.00
2023-04-26T07:25:24.861Z,8856.00
2023-04-26T07:26:24.880Z,8580.00
2023-04-26T07:27:24.856Z,8272.00
2023-04-26T07:28:24.826Z,8212.00
2023-04-26T07:29:24.827Z,8496.00
2023-04-26T07:30:24.806Z,8792.00
2023-04-26T07:31:24.792Z,8796.00
2023-04-26T07:32:24.818Z,8632.00
2023-04-26T07:33:24.894Z,8828.00
2023-04-26T07:34:24.783Z,9304.00
2023-04-26T07:35:24.741Z,9156.00
2023-04-26T07:36:25.201Z,8260.00
2023-04-26T07:37:24.736Z,7308.00
2023-04-26T07:38:24.711Z,6920.00
2023-04-26T07:39:24.726Z,7020.00
2023-04-26T07:40:24.695Z,7540.00
2023-04-26T07:41:24.690Z,8036.00
2023-04-26T07:42:24.664Z,8436.00
2023-04-26T07:43:24.677Z,8880.00
2023-04-26T07:44:24.643Z,9252.00
2023-04-26T07:45:24.671Z,9376.00
2023-04-26T07:46:24.665Z,9128.00
2023-04-26T07:47:24.657Z,9064.00
2023-04-26T07:48:24.635Z,9260.00
2023-04-26T07:49:24.632Z,9620.00
2023-04-26T07:50:24.666Z,10044.00
2023-04-26T07:51:24.609Z,10456.00
2023-04-26T07:52:24.583Z,10600.00
2023-04-26T07:53:24.552Z,10504.00
2023-04-26T07:54:24.594Z,9500.00
2023-04-26T07:55:24.533Z,8852.00
2023-04-26T07:56:24.550Z,8896.00
2023-04-26T07:57:24.513Z,9340.00
2023-04-26T07:58:24.502Z,9016.00
2023-04-26T07:59:24.485Z,8592.00
2023-04-26T08:00:24.593Z,7644.00
2023-04-26T08:01:24.456Z,6860.00
2023-04-26T08:02:33.217Z,6360.00
2023-04-26T08:03:24.658Z,6092.00
2023-04-26T08:04:24.571Z,6064.00
2023-04-26T08:05:24.644Z,6020.00
2023-04-26T08:06:24.464Z,6144.00
2023-04-26T08:07:24.398Z,6324.00
2023-04-26T08:08:24.378Z,6304.00
2023-04-26T08:09:24.382Z,5920.00
2023-04-26T08:10:24.416Z,5996.00
2023-04-26T08:11:24.430Z,6472.00
2023-04-26T08:12:24.359Z,7320.00
2023-04-26T08:13:26.332Z,8220.00
2023-04-26T08:14:24.310Z,8640.00
2023-04-26T08:15:24.344Z,9712.00
2023-04-26T08:16:24.333Z,10528.00
2023-04-26T08:17:24.304Z,10324.00
2023-04-26T08:18:24.491Z,9616.00
2023-04-26T08:19:24.264Z,8788.00
2023-04-26T08:20:24.335Z,8224.00
2023-04-26T08:21:24.231Z,8200.00
2023-04-26T08:22:24.258Z,8604.00
2023-04-26T08:23:24.212Z,9780.00
2023-04-26T08:24:24.216Z,10128.00
2023-04-26T08:25:24.198Z,10708.00
2023-04-26T08:26:24.208Z,11076.00
2023-04-26T08:27:24.186Z,10696.00
2023-04-26T08:28:24.181Z,10264.00
2023-04-26T08:29:24.134Z,9704.00
2023-04-26T08:30:24.200Z,8964.00
2023-04-26T08:31:24.167Z,8876.00
2023-04-26T08:32:24.114Z,8832.00
2023-04-26T08:33:24.105Z,8824.00
2023-04-26T08:34:24.080Z,8644.00
2023-04-26T08:35:24.084Z,8636.00
2023-04-26T08:36:24.073Z,8960.00
2023-04-26T08:37:24.095Z,9668.00
2023-04-26T08:38:24.138Z,10224.00
2023-04-26T08:39:24.046Z,10684.00
2023-04-26T08:40:24.072Z,10960.00
2023-04-26T08:41:24.022Z,10388.00
2023-04-26T08:42:24.006Z,9632.00
2023-04-26T08:43:24.026Z,9560.00
2023-04-26T08:44:23.979Z,9464.00
2023-04-26T08:45:23.974Z,9332.00
2023-04-26T08:46:23.990Z,9284.00
2023-04-26T08:47:24.000Z,9324.00
2023-04-26T08:48:23.929Z,9344.00
2023-04-26T08:49:23.937Z,9288.00
2023-04-26T08:50:24.020Z,9384.00
2023-04-26T08:51:23.921Z,9664.00
2023-04-26T08:52:23.911Z,9872.00
2023-04-26T08:53:23.879Z,9800.00
2023-04-26T08:54:23.876Z,9560.00
2023-04-26T08:55:23.875Z,9492.00
2023-04-26T08:56:23.833Z,9428.00
2023-04-26T08:57:23.842Z,9252.00
2023-04-26T08:58:23.851Z,9464.00
2023-04-26T08:59:23.823Z,10268.00
2023-04-26T09:00:23.803Z,11044.00
2023-04-26T09:01:23.833Z,11440.00
2023-04-26T09:02:24.010Z,11408.00
2023-04-26T09:03:23.962Z,11108.00
2023-04-26T09:04:23.918Z,10944.00
2023-04-26T09:05:23.796Z,10868.00
2023-04-26T09:06:23.747Z,10752.00
2023-04-26T09:07:23.736Z,10860.00
2023-04-26T09:08:23.758Z,10508.00
2023-04-26T09:09:23.723Z,10328.00
2023-04-26T09:10:23.809Z,10412.00
2023-04-26T09:11:23.701Z,10756.00
2023-04-26T09:12:23.656Z,11368.00
2023-04-26T09:13:23.696Z,11632.00
2023-04-26T09:14:23.652Z,11732.00
2023-04-26T09:15:23.664Z,11864.00
2023-04-26T09:16:23.677Z,12328.00
2023-04-26T09:17:23.661Z,12828.00
2023-04-26T09:18:23.641Z,13340.00
2023-04-26T09:19:23.593Z,13768.00
2023-04-26T09:20:23.599Z,14036.00
2023-04-26T09:21:23.577Z,13748.00
2023-04-26T09:22:23.616Z,12980.00
2023-04-26T09:23:23.543Z,11984.00
2023-04-26T09:24:23.576Z,11024.00
2023-04-26T09:25:24.391Z,10228.00
2023-04-26T09:26:23.512Z,10052.00
2023-04-26T09:27:23.490Z,10124.00
2023-04-26T09:28:23.486Z,10332.00
2023-04-26T09:29:23.503Z,10852.00
2023-04-26T09:30:23.487Z,11540.00
2023-04-26T09:31:23.530Z,12520.00
2023-04-26T09:32:23.447Z,13428.00
2023-04-26T09:33:23.483Z,14000.00
2023-04-26T09:34:23.440Z,14132.00
2023-04-26T09:35:23.490Z,14008.00
2023-04-26T09:36:23.409Z,13540.00
2023-04-26T09:37:23.385Z,12788.00
2023-04-26T09:38:23.398Z,11912.00
2023-04-26T09:39:23.367Z,11208.00
2023-04-26T09:40:23.375Z,10960.00
2023-04-26T09:41:23.355Z,10860.00
2023-04-26T09:42:23.345Z,10964.00
2023-04-26T09:43:23.328Z,11188.00
2023-04-26T09:44:23.385Z,11396.00
2023-04-26T09:45:23.303Z,11968.00
2023-04-26T09:46:23.324Z,12512.00
2023-04-26T09:47:23.302Z,12784.00
2023-04-26T09:48:23.351Z,12932.00
2023-04-26T09:49:23.291Z,12576.00
2023-04-26T09:50:23.254Z,12964.00
2023-04-26T09:51:23.222Z,12964.00
2023-04-26T09:52:24.169Z,12808.00
2023-04-26T09:53:23.197Z,12540.00
2023-04-26T09:54:23.203Z,12324.00
2023-04-26T09:55:34.129Z,12276.00
2023-04-26T09:56:23.232Z,11924.00
2023-04-26T09:57:23.176Z,11712.00
2023-04-26T09:58:23.183Z,11684.00
2023-04-26T09:59:23.155Z,11836.00
2023-04-26T10:00:23.147Z,12232.00
2023-04-26T10:01:23.183Z,13024.00
2023-04-26T10:02:23.272Z,14736.00
2023-04-26T10:03:23.223Z,15092.00
2023-04-26T10:04:23.172Z,14984.00
2023-04-26T10:05:23.085Z,15436.00
2023-04-26T10:06:23.109Z,15236.00
2023-04-26T10:07:23.044Z,15228.00
2023-04-26T10:08:23.049Z,15228.00
2023-04-26T10:09:23.048Z,14964.00
2023-04-26T10:10:23.029Z,14244.00
2023-04-26T10:11:23.016Z,13800.00
2023-04-26T10:12:23.039Z,13912.00
2023-04-26T10:13:23.048Z,13960.00
2023-04-26T10:14:22.982Z,13832.00
2023-04-26T10:15:22.958Z,13572.00
2023-04-26T10:16:23.076Z,13512.00
2023-04-26T10:17:23.019Z,13420.00
2023-04-26T10:18:22.930Z,13788.00
2023-04-26T10:19:22.917Z,13536.00
2023-04-26T10:20:22.913Z,13112.00
2023-04-26T10:21:22.887Z,13480.00
2023-04-26T10:22:22.890Z,13100.00
2023-04-26T10:23:22.919Z,12804.00
2023-04-26T10:24:22.873Z,12776.00
2023-04-26T10:25:22.838Z,13452.00
2023-04-26T10:26:22.834Z,14028.00
2023-04-26T10:27:22.848Z,14716.00
2023-04-26T10:28:22.816Z,14564.00
2023-04-26T10:29:22.845Z,14012.00
2023-04-26T10:30:22.894Z,13868.00
2023-04-26T10:31:22.838Z,14308.00
2023-04-26T10:32:22.769Z,15240.00
2023-04-26T10:33:22.801Z,16200.00
2023-04-26T10:34:22.750Z,15988.00
2023-04-26T10:35:22.762Z,15728.00
2023-04-26T10:36:22.761Z,15696.00
2023-04-26T10:37:22.738Z,15760.00
2023-04-26T10:38:22.731Z,15488.00
2023-04-26T10:39:22.714Z,16244.00
2023-04-26T10:40:22.726Z,15416.00
2023-04-26T10:41:22.700Z,15084.00
2023-04-26T10:42:23.973Z,15232.00
2023-04-26T10:43:23.711Z,14852.00
2023-04-26T10:44:22.635Z,13736.00
2023-04-26T10:45:22.640Z,13532.00
2023-04-26T10:46:22.758Z,13100.00
2023-04-26T10:47:22.746Z,13108.00
2023-04-26T10:48:22.673Z,14008.00
2023-04-26T10:49:24.319Z,14900.00
2023-04-26T10:50:22.588Z,15360.00
2023-04-26T10:51:22.589Z,15636.00
2023-04-26T10:52:22.566Z,16300.00
2023-04-26T10:53:22.540Z,17792.00
2023-04-26T10:54:22.549Z,17792.00
2023-04-26T10:55:23.800Z,16824.00
2023-04-26T10:56:22.524Z,15400.00
2023-04-26T10:57:22.506Z,15292.00
2023-04-26T10:58:22.497Z,14748.00
2023-04-26T10:59:39.877Z,14700.00
2023-04-26T11:00:22.496Z,14968.00
2023-04-26T11:01:22.471Z,15376.00
2023-04-26T11:02:22.483Z,15424.00
2023-04-26T11:03:22.561Z,15120.00
2023-04-26T11:04:22.739Z,14684.00
2023-04-26T11:05:23.580Z,13832.00
2023-04-26T11:06:22.431Z,13564.00
2023-04-26T11:07:22.405Z,13136.00
2023-04-26T11:08:22.385Z,13544.00
2023-04-26T11:09:22.380Z,13956.00
2023-04-26T11:10:22.378Z,13936.00
2023-04-26T11:11:22.355Z,13924.00
2023-04-26T11:12:22.357Z,15272.00
2023-04-26T11:13:22.352Z,15320.00
2023-04-26T11:14:22.314Z,15004.00
2023-04-26T11:15:22.338Z,15176.00
2023-04-26T11:16:22.341Z,14608.00
2023-04-26T11:17:22.348Z,14260.00
2023-04-26T11:18:22.274Z,14644.00
2023-04-26T11:19:22.279Z,14480.00
2023-04-26T11:20:22.288Z,14820.00
2023-04-26T11:21:22.236Z,15844.00
2023-04-26T11:22:22.237Z,16600.00
2023-04-26T11:23:22.253Z,16868.00
2023-04-26T11:24:22.319Z,16672.00
2023-04-26T11:25:23.271Z,16960.00
2023-04-26T11:26:22.169Z,17824.00
2023-04-26T11:27:22.177Z,18368.00
2023-04-26T11:28:22.171Z,17984.00
2023-04-26T11:29:22.176Z,17984.00
2023-04-26T11:30:22.230Z,18592.00
2023-04-26T11:31:22.195Z,18016.00
2023-04-26T11:32:22.156Z,18176.00
2023-04-26T11:33:22.168Z,18336.00
2023-04-26T11:34:22.109Z,17760.00
2023-04-26T11:35:22.089Z,16948.00
2023-04-26T11:36:22.098Z,15980.00
2023-04-26T11:37:22.099Z,16444.00
2023-04-26T11:38:22.054Z,17568.00
2023-04-26T11:39:22.018Z,18432.00
2023-04-26T11:40:22.047Z,19264.00
2023-04-26T11:41:22.002Z,20448.00
2023-04-26T11:42:22.018Z,20864.00
2023-04-26T11:43:22.016Z,21280.00
2023-04-26T11:44:21.977Z,21216.00
2023-04-26T11:45:21.981Z,19648.00
2023-04-26T11:46:22.003Z,18912.00
2023-04-26T11:47:21.941Z,18272.00
2023-04-26T11:48:22.038Z,17856.00
2023-04-26T11:49:21.918Z,18560.00
2023-04-26T11:50:21.934Z,18656.00
2023-04-26T11:51:21.886Z,18848.00
2023-04-26T11:52:21.931Z,20352.00
2023-04-26T11:53:21.876Z,19776.00
2023-04-26T11:54:21.875Z,20352.00
2023-04-26T11:55:21.882Z,21056.00
2023-04-26T11:56:21.959Z,20768.00
2023-04-26T11:57:21.846Z,20736.00
2023-04-26T11:58:21.832Z,20960.00
2023-04-26T11:59:21.817Z,21216.00
2023-04-26T12:00:21.798Z,21248.00
2023-04-26T12:01:21.796Z,21248.00
2023-04-26T12:02:21.930Z,19872.00
2023-04-26T12:03:22.146Z,18976.00
2023-04-26T12:04:21.945Z,18880.00
2023-04-26T12:05:21.853Z,19520.00
2023-04-26T12:06:21.788Z,20512.00
2023-04-26T12:07:21.716Z,21216.00
2023-04-26T12:08:21.740Z,21728.00
2023-04-26T12:09:21.698Z,20672.00
2023-04-26T12:10:21.706Z,19648.00
2023-04-26T12:11:21.694Z,19168.00
2023-04-26T12:12:21.666Z,18528.00
2023-04-26T12:13:21.661Z,19008.00
2023-04-26T12:14:21.641Z,19872.00
2023-04-26T12:15:21.646Z,19456.00
2023-04-26T12:16:26.749Z,19744.00
2023-04-26T12:17:21.716Z,20096.00
2023-04-26T12:18:21.644Z,20064.00
2023-04-26T12:19:21.585Z,19776.00
2023-04-26T12:20:21.590Z,20000.00
2023-04-26T12:21:21.559Z,22400.00
2023-04-26T12:22:21.556Z,25120.00
2023-04-26T12:23:21.555Z,27232.00